sensor_id;sensor_type;location;lat;lon;timestamp;P1;durP1;ratioP1;P2;durP2;ratioP2
10469;SDS011;5282;47.052;15.458;2022-08-19T00:00:25;3.83;;;3.20;;
10469;SDS011;5282;47.052;15.458;2022-08-19T00:02:53;5.70;;;3.30;;
10469;SDS011;5282;47.052;15.458;2022-08-19T00:05:20;5.30;;;3.13;;
10469;SDS011;5282;47.052;15.458;2022-08-19T00:07:49;3.50;;;3.23;;
10469;SDS011;5282;47.052;15.458;2022-08-19T00:10:18;6.53;;;3.83;;
10469;SDS011;5282;47.052;15.458;2022-08-19T00:12:49;5.13;;;3.40;;
10469;SDS011;5282;47.052;15.458;2022-08-19T00:15:18;4.77;;;3.60;;
10469;SDS011;5282;47.052;15.458;2022-08-19T00:17:47;3.40;;;3.10;;
10469;SDS011;5282;47.052;15.458;2022-08-19T00:20:16;5.77;;;3.60;;
10469;SDS011;5282;47.052;15.458;2022-08-19T00:22:45;6.27;;;3.60;;
10469;SDS011;5282;47.052;15.458;2022-08-19T00:25:13;4.10;;;3.70;;
10469;SDS011;5282;47.052;15.458;2022-08-19T00:27:41;5.47;;;3.60;;
10469;SDS011;5282;47.052;15.458;2022-08-19T00:30:10;4.80;;;3.40;;
10469;SDS011;5282;47.052;15.458;2022-08-19T00:32:38;5.70;;;3.50;;
10469;SDS011;5282;47.052;15.458;2022-08-19T00:35:07;6.23;;;3.27;;
10469;SDS011;5282;47.052;15.458;2022-08-19T00:37:35;4.47;;;3.30;;
10469;SDS011;5282;47.052;15.458;2022-08-19T00:40:03;3.87;;;3.20;;
10469;SDS011;5282;47.052;15.458;2022-08-19T00:42:33;3.63;;;3.33;;
10469;SDS011;5282;47.052;15.458;2022-08-19T00:45:00;3.90;;;3.47;;
10469;SDS011;5282;47.052;15.458;2022-08-19T00:47:28;4.70;;;3.63;;
10469;SDS011;5282;47.052;15.458;2022-08-19T00:49:56;3.70;;;3.40;;
10469;SDS011;5282;47.052;15.458;2022-08-19T00:52:25;5.73;;;3.53;;
10469;SDS011;5282;47.052;15.458;2022-08-19T00:54:55;8.63;;;3.73;;
10469;SDS011;5282;47.052;15.458;2022-08-19T00:57:24;4.07;;;3.67;;
10469;SDS011;5282;47.052;15.458;2022-08-19T00:59:56;4.57;;;3.70;;
10469;SDS011;5282;47.052;15.458;2022-08-19T01:02:25;4.67;;;3.83;;
10469;SDS011;5282;47.052;15.458;2022-08-19T01:04:55;5.97;;;3.87;;
10469;SDS011;5282;47.052;15.458;2022-08-19T01:07:22;4.30;;;3.93;;
10469;SDS011;5282;47.052;15.458;2022-08-19T01:09:50;4.87;;;4.40;;
10469;SDS011;5282;47.052;15.458;2022-08-19T01:12:16;5.70;;;4.20;;
10469;SDS011;5282;47.052;15.458;2022-08-19T01:14:45;7.43;;;4.53;;
10469;SDS011;5282;47.052;15.458;2022-08-19T01:17:15;5.47;;;4.97;;
10469;SDS011;5282;47.052;15.458;2022-08-19T01:19:43;7.70;;;4.90;;
10469;SDS011;5282;47.052;15.458;2022-08-19T01:22:16;7.70;;;5.23;;
10469;SDS011;5282;47.052;15.458;2022-08-19T01:24:49;6.37;;;4.97;;
10469;SDS011;5282;47.052;15.458;2022-08-19T01:27:18;5.77;;;4.60;;
10469;SDS011;5282;47.052;15.458;2022-08-19T01:29:45;7.57;;;5.40;;
10469;SDS011;5282;47.052;15.458;2022-08-19T01:32:12;6.23;;;5.50;;
10469;SDS011;5282;47.052;15.458;2022-08-19T01:34:41;7.30;;;5.50;;
10469;SDS011;5282;47.052;15.458;2022-08-19T01:37:14;5.90;;;5.23;;
10469;SDS011;5282;47.052;15.458;2022-08-19T01:39:43;5.60;;;5.10;;
10469;SDS011;5282;47.052;15.458;2022-08-19T01:42:14;8.37;;;5.13;;
10469;SDS011;5282;47.052;15.458;2022-08-19T01:44:43;8.73;;;5.63;;
10469;SDS011;5282;47.052;15.458;2022-08-19T01:47:11;5.23;;;4.93;;
10469;SDS011;5282;47.052;15.458;2022-08-19T01:49:37;6.07;;;4.60;;
10469;SDS011;5282;47.052;15.458;2022-08-19T01:52:06;5.80;;;5.07;;
10469;SDS011;5282;47.052;15.458;2022-08-19T01:54:33;8.93;;;5.37;;
10469;SDS011;5282;47.052;15.458;2022-08-19T01:57:02;5.07;;;4.67;;
10469;SDS011;5282;47.052;15.458;2022-08-19T01:59:36;9.27;;;5.23;;
10469;SDS011;5282;47.052;15.458;2022-08-19T02:02:04;7.63;;;5.37;;
10469;SDS011;5282;47.052;15.458;2022-08-19T02:04:35;5.40;;;4.90;;
10469;SDS011;5282;47.052;15.458;2022-08-19T02:07:04;5.70;;;5.13;;
10469;SDS011;5282;47.052;15.458;2022-08-19T02:09:33;7.93;;;5.37;;
10469;SDS011;5282;47.052;15.458;2022-08-19T02:12:01;6.30;;;4.90;;
10469;SDS011;5282;47.052;15.458;2022-08-19T02:14:30;5.50;;;5.00;;
10469;SDS011;5282;47.052;15.458;2022-08-19T02:16:59;5.20;;;4.80;;
10469;SDS011;5282;47.052;15.458;2022-08-19T02:19:26;5.33;;;4.83;;
10469;SDS011;5282;47.052;15.458;2022-08-19T02:21:53;6.57;;;5.00;;
10469;SDS011;5282;47.052;15.458;2022-08-19T02:24:24;5.73;;;5.20;;
10469;SDS011;5282;47.052;15.458;2022-08-19T02:26:53;6.97;;;5.07;;
10469;SDS011;5282;47.052;15.458;2022-08-19T02:29:20;5.40;;;4.70;;
10469;SDS011;5282;47.052;15.458;2022-08-19T02:31:47;5.47;;;4.50;;
10469;SDS011;5282;47.052;15.458;2022-08-19T02:34:15;6.03;;;4.90;;
10469;SDS011;5282;47.052;15.458;2022-08-19T02:36:44;6.33;;;4.80;;
10469;SDS011;5282;47.052;15.458;2022-08-19T02:39:11;6.57;;;5.00;;
10469;SDS011;5282;47.052;15.458;2022-08-19T02:41:37;9.87;;;4.67;;
10469;SDS011;5282;47.052;15.458;2022-08-19T02:44:04;7.47;;;4.47;;
10469;SDS011;5282;47.052;15.458;2022-08-19T02:46:33;4.57;;;4.17;;
10469;SDS011;5282;47.052;15.458;2022-08-19T02:49:02;5.30;;;4.53;;
10469;SDS011;5282;47.052;15.458;2022-08-19T02:51:34;4.30;;;4.00;;
10469;SDS011;5282;47.052;15.458;2022-08-19T02:54:02;5.53;;;4.93;;
10469;SDS011;5282;47.052;15.458;2022-08-19T02:56:31;6.57;;;4.80;;
10469;SDS011;5282;47.052;15.458;2022-08-19T02:58:58;6.53;;;4.80;;
10469;SDS011;5282;47.052;15.458;2022-08-19T03:01:25;6.53;;;4.40;;
10469;SDS011;5282;47.052;15.458;2022-08-19T03:03:54;5.43;;;4.67;;
10469;SDS011;5282;47.052;15.458;2022-08-19T03:06:22;5.70;;;4.97;;
10469;SDS011;5282;47.052;15.458;2022-08-19T03:09:00;5.70;;;4.50;;
10469;SDS011;5282;47.052;15.458;2022-08-19T03:11:29;5.37;;;4.87;;
10469;SDS011;5282;47.052;15.458;2022-08-19T03:13:59;6.63;;;4.70;;
10469;SDS011;5282;47.052;15.458;2022-08-19T03:16:29;7.63;;;4.57;;
10469;SDS011;5282;47.052;15.458;2022-08-19T03:18:57;5.00;;;4.53;;
10469;SDS011;5282;47.052;15.458;2022-08-19T03:21:29;6.90;;;5.00;;
10469;SDS011;5282;47.052;15.458;2022-08-19T03:24:01;5.00;;;4.60;;
10469;SDS011;5282;47.052;15.458;2022-08-19T03:26:31;5.03;;;4.23;;
10469;SDS011;5282;47.052;15.458;2022-08-19T03:29:01;6.33;;;4.10;;
10469;SDS011;5282;47.052;15.458;2022-08-19T03:31:28;5.27;;;4.23;;
10469;SDS011;5282;47.052;15.458;2022-08-19T03:33:56;5.77;;;3.67;;
10469;SDS011;5282;47.052;15.458;2022-08-19T03:36:24;4.50;;;3.97;;
10469;SDS011;5282;47.052;15.458;2022-08-19T03:38:54;6.07;;;3.87;;
10469;SDS011;5282;47.052;15.458;2022-08-19T03:41:28;5.33;;;3.83;;
10469;SDS011;5282;47.052;15.458;2022-08-19T03:43:57;4.30;;;3.90;;
10469;SDS011;5282;47.052;15.458;2022-08-19T03:46:26;3.93;;;3.53;;
10469;SDS011;5282;47.052;15.458;2022-08-19T03:48:54;4.93;;;3.50;;
10469;SDS011;5282;47.052;15.458;2022-08-19T03:51:24;7.97;;;4.10;;
10469;SDS011;5282;47.052;15.458;2022-08-19T03:53:54;4.50;;;3.90;;
10469;SDS011;5282;47.052;15.458;2022-08-19T03:56:21;6.73;;;3.43;;
10469;SDS011;5282;47.052;15.458;2022-08-19T03:58:51;5.10;;;3.80;;
10469;SDS011;5282;47.052;15.458;2022-08-19T04:01:19;4.50;;;3.47;;
10469;SDS011;5282;47.052;15.458;2022-08-19T04:03:49;4.30;;;3.60;;
10469;SDS011;5282;47.052;15.458;2022-08-19T04:06:18;4.93;;;4.17;;
10469;SDS011;5282;47.052;15.458;2022-08-19T04:08:47;7.67;;;3.90;;
10469;SDS011;5282;47.052;15.458;2022-08-19T04:11:16;7.80;;;4.47;;
10469;SDS011;5282;47.052;15.458;2022-08-19T04:13:45;8.10;;;4.53;;
10469;SDS011;5282;47.052;15.458;2022-08-19T04:16:14;8.63;;;4.47;;
10469;SDS011;5282;47.052;15.458;2022-08-19T04:18:42;8.47;;;4.67;;
10469;SDS011;5282;47.052;15.458;2022-08-19T04:21:14;5.23;;;4.50;;
10469;SDS011;5282;47.052;15.458;2022-08-19T04:23:43;7.47;;;4.50;;
10469;SDS011;5282;47.052;15.458;2022-08-19T04:26:11;5.07;;;4.50;;
10469;SDS011;5282;47.052;15.458;2022-08-19T04:28:39;6.63;;;4.33;;
10469;SDS011;5282;47.052;15.458;2022-08-19T04:31:11;6.50;;;4.50;;
10469;SDS011;5282;47.052;15.458;2022-08-19T04:33:41;4.80;;;4.33;;
10469;SDS011;5282;47.052;15.458;2022-08-19T04:36:14;6.57;;;4.03;;
10469;SDS011;5282;47.052;15.458;2022-08-19T04:38:46;8.80;;;3.53;;
10469;SDS011;5282;47.052;15.458;2022-08-19T04:41:12;3.37;;;3.10;;
10469;SDS011;5282;47.052;15.458;2022-08-19T04:43:57;5.23;;;3.50;;
10469;SDS011;5282;47.052;15.458;2022-08-19T04:46:24;6.50;;;3.13;;
10469;SDS011;5282;47.052;15.458;2022-08-19T04:48:53;7.20;;;3.57;;
10469;SDS011;5282;47.052;15.458;2022-08-19T04:51:22;6.30;;;3.57;;
10469;SDS011;5282;47.052;15.458;2022-08-19T04:53:50;3.50;;;3.30;;
10469;SDS011;5282;47.052;15.458;2022-08-19T04:56:18;4.40;;;3.80;;
10469;SDS011;5282;47.052;15.458;2022-08-19T04:58:48;5.17;;;3.20;;
10469;SDS011;5282;47.052;15.458;2022-08-19T05:01:21;5.80;;;3.50;;
10469;SDS011;5282;47.052;15.458;2022-08-19T05:03:49;4.67;;;3.47;;
10469;SDS011;5282;47.052;15.458;2022-08-19T05:06:19;4.27;;;3.53;;
10469;SDS011;5282;47.052;15.458;2022-08-19T05:08:47;5.73;;;3.70;;
10469;SDS011;5282;47.052;15.458;2022-08-19T05:11:15;3.97;;;3.57;;
10469;SDS011;5282;47.052;15.458;2022-08-19T05:13:44;4.67;;;3.37;;
10469;SDS011;5282;47.052;15.458;2022-08-19T05:16:14;4.10;;;3.20;;
10469;SDS011;5282;47.052;15.458;2022-08-19T05:18:42;6.17;;;3.67;;
10469;SDS011;5282;47.052;15.458;2022-08-19T05:21:28;4.13;;;3.67;;
10469;SDS011;5282;47.052;15.458;2022-08-19T05:24:13;4.90;;;3.50;;
10469;SDS011;5282;47.052;15.458;2022-08-19T05:26:42;5.40;;;3.77;;
10469;SDS011;5282;47.052;15.458;2022-08-19T05:29:13;4.27;;;3.27;;
10469;SDS011;5282;47.052;15.458;2022-08-19T05:31:41;11.00;;;3.87;;
10469;SDS011;5282;47.052;15.458;2022-08-19T05:34:09;4.70;;;3.53;;
10469;SDS011;5282;47.052;15.458;2022-08-19T05:36:38;4.20;;;3.80;;
10469;SDS011;5282;47.052;15.458;2022-08-19T05:39:07;6.60;;;3.57;;
10469;SDS011;5282;47.052;15.458;2022-08-19T05:41:40;6.27;;;3.83;;
10469;SDS011;5282;47.052;15.458;2022-08-19T05:44:08;5.43;;;3.90;;
10469;SDS011;5282;47.052;15.458;2022-08-19T05:46:35;4.50;;;3.60;;
10469;SDS011;5282;47.052;15.458;2022-08-19T05:49:06;6.70;;;3.60;;
10469;SDS011;5282;47.052;15.458;2022-08-19T05:51:34;7.97;;;3.87;;
10469;SDS011;5282;47.052;15.458;2022-08-19T05:54:04;5.37;;;4.00;;
10469;SDS011;5282;47.052;15.458;2022-08-19T05:56:32;5.97;;;3.93;;
10469;SDS011;5282;47.052;15.458;2022-08-19T05:59:02;9.83;;;4.27;;
10469;SDS011;5282;47.052;15.458;2022-08-19T06:01:29;8.10;;;4.10;;
10469;SDS011;5282;47.052;15.458;2022-08-19T06:03:56;7.57;;;4.00;;
10469;SDS011;5282;47.052;15.458;2022-08-19T06:06:24;7.00;;;3.73;;
10469;SDS011;5282;47.052;15.458;2022-08-19T06:08:53;4.80;;;3.70;;
10469;SDS011;5282;47.052;15.458;2022-08-19T06:11:22;7.33;;;3.87;;
10469;SDS011;5282;47.052;15.458;2022-08-19T06:13:52;5.73;;;4.00;;
10469;SDS011;5282;47.052;15.458;2022-08-19T06:16:21;5.93;;;4.23;;
10469;SDS011;5282;47.052;15.458;2022-08-19T06:18:49;7.00;;;4.07;;
10469;SDS011;5282;47.052;15.458;2022-08-19T06:21:18;4.30;;;3.87;;
10469;SDS011;5282;47.052;15.458;2022-08-19T06:23:46;6.80;;;4.10;;
10469;SDS011;5282;47.052;15.458;2022-08-19T06:26:14;5.80;;;4.00;;
10469;SDS011;5282;47.052;15.458;2022-08-19T06:28:44;5.50;;;3.77;;
10469;SDS011;5282;47.052;15.458;2022-08-19T06:31:12;11.30;;;4.10;;
10469;SDS011;5282;47.052;15.458;2022-08-19T06:33:41;7.27;;;4.07;;
10469;SDS011;5282;47.052;15.458;2022-08-19T06:36:13;5.97;;;4.47;;
10469;SDS011;5282;47.052;15.458;2022-08-19T06:38:43;4.90;;;3.90;;
10469;SDS011;5282;47.052;15.458;2022-08-19T06:41:09;6.20;;;4.27;;
10469;SDS011;5282;47.052;15.458;2022-08-19T06:43:36;5.83;;;4.20;;
10469;SDS011;5282;47.052;15.458;2022-08-19T06:46:09;3.87;;;3.37;;
10469;SDS011;5282;47.052;15.458;2022-08-19T06:48:38;5.37;;;4.30;;
10469;SDS011;5282;47.052;15.458;2022-08-19T06:51:05;4.00;;;3.70;;
10469;SDS011;5282;47.052;15.458;2022-08-19T06:53:32;4.10;;;3.73;;
10469;SDS011;5282;47.052;15.458;2022-08-19T06:55:59;4.00;;;3.60;;
10469;SDS011;5282;47.052;15.458;2022-08-19T06:58:28;6.80;;;3.90;;
10469;SDS011;5282;47.052;15.458;2022-08-19T07:00:58;6.43;;;3.90;;
10469;SDS011;5282;47.052;15.458;2022-08-19T07:03:28;8.43;;;4.10;;
10469;SDS011;5282;47.052;15.458;2022-08-19T07:05:57;8.13;;;3.90;;
10469;SDS011;5282;47.052;15.458;2022-08-19T07:08:24;5.80;;;3.93;;
10469;SDS011;5282;47.052;15.458;2022-08-19T07:10:52;5.77;;;3.97;;
10469;SDS011;5282;47.052;15.458;2022-08-19T07:13:20;6.73;;;3.90;;
10469;SDS011;5282;47.052;15.458;2022-08-19T07:15:47;6.13;;;3.70;;
10469;SDS011;5282;47.052;15.458;2022-08-19T07:18:17;5.10;;;3.53;;
10469;SDS011;5282;47.052;15.458;2022-08-19T07:20:49;6.30;;;3.87;;
10469;SDS011;5282;47.052;15.458;2022-08-19T07:23:16;7.33;;;3.80;;
10469;SDS011;5282;47.052;15.458;2022-08-19T07:25:43;5.77;;;3.70;;
10469;SDS011;5282;47.052;15.458;2022-08-19T07:28:11;8.17;;;4.23;;
10469;SDS011;5282;47.052;15.458;2022-08-19T07:30:38;5.93;;;4.07;;
10469;SDS011;5282;47.052;15.458;2022-08-19T07:33:06;3.97;;;3.53;;
10469;SDS011;5282;47.052;15.458;2022-08-19T07:35:33;3.57;;;3.07;;
10469;SDS011;5282;47.052;15.458;2022-08-19T07:38:02;4.17;;;2.93;;
10469;SDS011;5282;47.052;15.458;2022-08-19T07:40:29;4.83;;;3.20;;
10469;SDS011;5282;47.052;15.458;2022-08-19T07:42:57;4.00;;;2.70;;
10469;SDS011;5282;47.052;15.458;2022-08-19T07:45:24;3.53;;;2.13;;
10469;SDS011;5282;47.052;15.458;2022-08-19T07:47:51;2.33;;;2.13;;
10469;SDS011;5282;47.052;15.458;2022-08-19T07:50:19;2.40;;;2.20;;
10469;SDS011;5282;47.052;15.458;2022-08-19T07:52:47;3.30;;;1.90;;
10469;SDS011;5282;47.052;15.458;2022-08-19T07:55:17;2.27;;;2.13;;
10469;SDS011;5282;47.052;15.458;2022-08-19T07:57:46;2.50;;;1.70;;
10469;SDS011;5282;47.052;15.458;2022-08-19T08:00:14;2.67;;;1.80;;
10469;SDS011;5282;47.052;15.458;2022-08-19T08:02:41;2.37;;;2.17;;
10469;SDS011;5282;47.052;15.458;2022-08-19T08:05:09;2.20;;;2.00;;
10469;SDS011;5282;47.052;15.458;2022-08-19T08:07:53;2.07;;;1.90;;
10469;SDS011;5282;47.052;15.458;2022-08-19T08:10:39;5.43;;;2.20;;
10469;SDS011;5282;47.052;15.458;2022-08-19T08:13:06;1.50;;;1.40;;
10469;SDS011;5282;47.052;15.458;2022-08-19T08:15:33;1.83;;;1.73;;
10469;SDS011;5282;47.052;15.458;2022-08-19T08:18:02;2.03;;;1.83;;
10469;SDS011;5282;47.052;15.458;2022-08-19T08:20:29;3.63;;;2.07;;
10469;SDS011;5282;47.052;15.458;2022-08-19T08:22:57;2.70;;;2.00;;
10469;SDS011;5282;47.052;15.458;2022-08-19T08:25:43;2.10;;;2.00;;
10469;SDS011;5282;47.052;15.458;2022-08-19T08:28:12;3.13;;;2.00;;
10469;SDS011;5282;47.052;15.458;2022-08-19T08:30:38;3.30;;;2.40;;
10469;SDS011;5282;47.052;15.458;2022-08-19T08:33:07;2.80;;;2.60;;
10469;SDS011;5282;47.052;15.458;2022-08-19T08:35:34;3.73;;;3.27;;
10469;SDS011;5282;47.052;15.458;2022-08-19T08:38:02;4.90;;;2.80;;
10469;SDS011;5282;47.052;15.458;2022-08-19T08:40:31;3.70;;;3.07;;
10469;SDS011;5282;47.052;15.458;2022-08-19T08:43:07;5.20;;;2.97;;
10469;SDS011;5282;47.052;15.458;2022-08-19T08:45:42;3.40;;;3.10;;
10469;SDS011;5282;47.052;15.458;2022-08-19T08:48:15;3.00;;;2.80;;
10469;SDS011;5282;47.052;15.458;2022-08-19T08:50:46;3.47;;;3.10;;
10469;SDS011;5282;47.052;15.458;2022-08-19T08:53:18;6.63;;;3.33;;
10469;SDS011;5282;47.052;15.458;2022-08-19T08:55:46;3.80;;;3.30;;
10469;SDS011;5282;47.052;15.458;2022-08-19T08:58:18;3.37;;;3.10;;
10469;SDS011;5282;47.052;15.458;2022-08-19T09:00:50;5.07;;;3.50;;
10469;SDS011;5282;47.052;15.458;2022-08-19T09:03:19;5.90;;;3.77;;
10469;SDS011;5282;47.052;15.458;2022-08-19T09:05:51;4.33;;;3.93;;
10469;SDS011;5282;47.052;15.458;2022-08-19T09:08:27;4.97;;;4.00;;
10469;SDS011;5282;47.052;15.458;2022-08-19T09:11:07;4.10;;;3.80;;
10469;SDS011;5282;47.052;15.458;2022-08-19T09:13:41;4.17;;;3.87;;
10469;SDS011;5282;47.052;15.458;2022-08-19T09:16:14;4.57;;;4.20;;
10469;SDS011;5282;47.052;15.458;2022-08-19T09:18:47;3.70;;;3.50;;
10469;SDS011;5282;47.052;15.458;2022-08-19T09:21:18;4.90;;;4.10;;
10469;SDS011;5282;47.052;15.458;2022-08-19T09:23:48;4.50;;;4.20;;
10469;SDS011;5282;47.052;15.458;2022-08-19T09:26:16;5.30;;;4.10;;
10469;SDS011;5282;47.052;15.458;2022-08-19T09:28:47;6.43;;;3.93;;
10469;SDS011;5282;47.052;15.458;2022-08-19T09:31:21;4.10;;;3.80;;
10469;SDS011;5282;47.052;15.458;2022-08-19T09:33:50;4.23;;;3.90;;
10469;SDS011;5282;47.052;15.458;2022-08-19T09:36:19;4.80;;;4.30;;
10469;SDS011;5282;47.052;15.458;2022-08-19T09:38:50;4.40;;;3.70;;
10469;SDS011;5282;47.052;15.458;2022-08-19T09:41:19;4.37;;;3.70;;
10469;SDS011;5282;47.052;15.458;2022-08-19T09:43:53;4.07;;;3.77;;
10469;SDS011;5282;47.052;15.458;2022-08-19T09:46:25;5.13;;;3.60;;
10469;SDS011;5282;47.052;15.458;2022-08-19T09:48:53;5.23;;;3.77;;
10469;SDS011;5282;47.052;15.458;2022-08-19T09:51:22;6.90;;;3.67;;
10469;SDS011;5282;47.052;15.458;2022-08-19T09:53:53;5.73;;;3.80;;
10469;SDS011;5282;47.052;15.458;2022-08-19T09:56:22;5.33;;;3.80;;
10469;SDS011;5282;47.052;15.458;2022-08-19T09:58:49;4.47;;;4.10;;
10469;SDS011;5282;47.052;15.458;2022-08-19T10:01:19;3.40;;;3.20;;
10469;SDS011;5282;47.052;15.458;2022-08-19T10:03:48;4.30;;;3.90;;
10469;SDS011;5282;47.052;15.458;2022-08-19T10:06:18;4.20;;;3.80;;
10469;SDS011;5282;47.052;15.458;2022-08-19T10:08:45;4.30;;;3.90;;
10469;SDS011;5282;47.052;15.458;2022-08-19T10:11:15;4.53;;;4.10;;
10469;SDS011;5282;47.052;15.458;2022-08-19T10:13:42;4.50;;;4.10;;
10469;SDS011;5282;47.052;15.458;2022-08-19T10:16:11;5.57;;;4.27;;
10469;SDS011;5282;47.052;15.458;2022-08-19T10:18:42;5.97;;;4.17;;
10469;SDS011;5282;47.052;15.458;2022-08-19T10:21:10;6.50;;;4.30;;
10469;SDS011;5282;47.052;15.458;2022-08-19T10:23:39;4.60;;;4.23;;
10469;SDS011;5282;47.052;15.458;2022-08-19T10:26:10;6.67;;;4.20;;
10469;SDS011;5282;47.052;15.458;2022-08-19T10:28:39;7.80;;;3.93;;
10469;SDS011;5282;47.052;15.458;2022-08-19T10:31:06;7.30;;;4.80;;
10469;SDS011;5282;47.052;15.458;2022-08-19T10:33:35;4.67;;;4.07;;
10469;SDS011;5282;47.052;15.458;2022-08-19T10:36:05;4.53;;;4.13;;
10469;SDS011;5282;47.052;15.458;2022-08-19T10:38:35;4.50;;;4.10;;
10469;SDS011;5282;47.052;15.458;2022-08-19T10:41:07;6.10;;;4.10;;
10469;SDS011;5282;47.052;15.458;2022-08-19T10:43:35;4.30;;;3.83;;
10469;SDS011;5282;47.052;15.458;2022-08-19T10:46:04;4.83;;;3.83;;
10469;SDS011;5282;47.052;15.458;2022-08-19T10:48:31;5.30;;;4.40;;
10469;SDS011;5282;47.052;15.458;2022-08-19T10:50:58;4.30;;;3.90;;
10469;SDS011;5282;47.052;15.458;2022-08-19T10:53:44;4.60;;;3.60;;
10469;SDS011;5282;47.052;15.458;2022-08-19T10:56:11;8.17;;;4.23;;
10469;SDS011;5282;47.052;15.458;2022-08-19T10:58:56;4.17;;;3.87;;
10469;SDS011;5282;47.052;15.458;2022-08-19T11:01:23;4.60;;;4.27;;
10469;SDS011;5282;47.052;15.458;2022-08-19T11:03:50;6.47;;;3.83;;
10469;SDS011;5282;47.052;15.458;2022-08-19T11:06:17;6.13;;;3.90;;
10469;SDS011;5282;47.052;15.458;2022-08-19T11:08:47;3.90;;;3.60;;
10469;SDS011;5282;47.052;15.458;2022-08-19T11:11:13;3.63;;;3.33;;
10469;SDS011;5282;47.052;15.458;2022-08-19T11:13:40;7.00;;;3.50;;
10469;SDS011;5282;47.052;15.458;2022-08-19T11:16:10;5.53;;;3.60;;
10469;SDS011;5282;47.052;15.458;2022-08-19T11:18:39;4.10;;;3.60;;
10469;SDS011;5282;47.052;15.458;2022-08-19T11:21:10;4.40;;;3.60;;
10469;SDS011;5282;47.052;15.458;2022-08-19T11:23:38;5.87;;;3.93;;
10469;SDS011;5282;47.052;15.458;2022-08-19T11:26:07;3.80;;;3.50;;
10469;SDS011;5282;47.052;15.458;2022-08-19T11:28:35;5.97;;;3.57;;
10469;SDS011;5282;47.052;15.458;2022-08-19T11:31:03;8.47;;;3.60;;
10469;SDS011;5282;47.052;15.458;2022-08-19T11:33:31;4.37;;;3.20;;
10469;SDS011;5282;47.052;15.458;2022-08-19T11:35:58;3.80;;;3.33;;
10469;SDS011;5282;47.052;15.458;2022-08-19T11:38:26;4.73;;;3.90;;
10469;SDS011;5282;47.052;15.458;2022-08-19T11:40:56;3.63;;;3.30;;
10469;SDS011;5282;47.052;15.458;2022-08-19T11:43:25;3.90;;;3.10;;
10469;SDS011;5282;47.052;15.458;2022-08-19T11:45:53;5.23;;;3.30;;
10469;SDS011;5282;47.052;15.458;2022-08-19T11:48:21;3.33;;;2.90;;
10469;SDS011;5282;47.052;15.458;2022-08-19T11:50:48;5.60;;;3.50;;
10469;SDS011;5282;47.052;15.458;2022-08-19T11:53:15;4.20;;;3.20;;
10469;SDS011;5282;47.052;15.458;2022-08-19T11:55:44;5.87;;;3.33;;
10469;SDS011;5282;47.052;15.458;2022-08-19T11:58:13;5.40;;;3.37;;
10469;SDS011;5282;47.052;15.458;2022-08-19T12:00:43;3.57;;;2.90;;
10469;SDS011;5282;47.052;15.458;2022-08-19T12:03:12;3.10;;;2.83;;
10469;SDS011;5282;47.052;15.458;2022-08-19T12:05:40;2.93;;;2.73;;
10469;SDS011;5282;47.052;15.458;2022-08-19T12:08:08;2.97;;;2.70;;
10469;SDS011;5282;47.052;15.458;2022-08-19T12:10:37;3.80;;;3.37;;
10469;SDS011;5282;47.052;15.458;2022-08-19T12:13:07;3.10;;;2.70;;
10469;SDS011;5282;47.052;15.458;2022-08-19T12:15:35;3.13;;;2.80;;
10469;SDS011;5282;47.052;15.458;2022-08-19T12:18:04;3.47;;;3.13;;
10469;SDS011;5282;47.052;15.458;2022-08-19T12:20:32;3.33;;;2.90;;
10469;SDS011;5282;47.052;15.458;2022-08-19T12:23:01;4.93;;;2.70;;
10469;SDS011;5282;47.052;15.458;2022-08-19T12:25:28;7.13;;;3.10;;
10469;SDS011;5282;47.052;15.458;2022-08-19T12:27:56;7.03;;;2.63;;
10469;SDS011;5282;47.052;15.458;2022-08-19T12:30:23;3.83;;;2.72;;
10469;SDS011;5282;47.052;15.458;2022-08-19T12:32:50;5.30;;;2.70;;
10469;SDS011;5282;47.052;15.458;2022-08-19T12:35:18;3.45;;;2.30;;
10469;SDS011;5282;47.052;15.458;2022-08-19T12:37:47;4.05;;;2.47;;
10469;SDS011;5282;47.052;15.458;2022-08-19T12:40:15;2.90;;;2.30;;
10469;SDS011;5282;47.052;15.458;2022-08-19T12:42:42;3.42;;;2.30;;
10469;SDS011;5282;47.052;15.458;2022-08-19T12:45:10;2.58;;;2.38;;
10469;SDS011;5282;47.052;15.458;2022-08-19T12:47:39;2.78;;;2.60;;
10469;SDS011;5282;47.052;15.458;2022-08-19T12:50:06;4.68;;;2.72;;
10469;SDS011;5282;47.052;15.458;2022-08-19T12:52:36;3.70;;;2.50;;
10469;SDS011;5282;47.052;15.458;2022-08-19T12:55:04;4.18;;;2.78;;
10469;SDS011;5282;47.052;15.458;2022-08-19T12:57:33;7.22;;;2.58;;
10469;SDS011;5282;47.052;15.458;2022-08-19T13:00:03;4.35;;;2.70;;
10469;SDS011;5282;47.052;15.458;2022-08-19T13:02:35;7.05;;;3.15;;
10469;SDS011;5282;47.052;15.458;2022-08-19T13:05:01;3.05;;;2.85;;
10469;SDS011;5282;47.052;15.458;2022-08-19T13:07:31;3.22;;;2.65;;
10469;SDS011;5282;47.052;15.458;2022-08-19T13:09:59;3.15;;;2.70;;
10469;SDS011;5282;47.052;15.458;2022-08-19T13:12:28;5.15;;;3.28;;
10469;SDS011;5282;47.052;15.458;2022-08-19T13:14:55;2.63;;;2.42;;
10469;SDS011;5282;47.052;15.458;2022-08-19T13:17:22;5.25;;;3.05;;
10469;SDS011;5282;47.052;15.458;2022-08-19T13:19:49;4.65;;;2.50;;
10469;SDS011;5282;47.052;15.458;2022-08-19T13:22:17;6.75;;;3.22;;
10469;SDS011;5282;47.052;15.458;2022-08-19T13:24:44;4.22;;;2.55;;
10469;SDS011;5282;47.052;15.458;2022-08-19T13:27:12;4.90;;;2.78;;
10469;SDS011;5282;47.052;15.458;2022-08-19T13:29:39;4.47;;;3.15;;
10469;SDS011;5282;47.052;15.458;2022-08-19T13:32:24;4.63;;;2.92;;
10469;SDS011;5282;47.052;15.458;2022-08-19T13:35:08;3.28;;;2.67;;
10469;SDS011;5282;47.052;15.458;2022-08-19T13:37:39;5.68;;;2.95;;
10469;SDS011;5282;47.052;15.458;2022-08-19T13:40:12;6.40;;;2.33;;
10469;SDS011;5282;47.052;15.458;2022-08-19T13:42:45;6.93;;;3.38;;
10469;SDS011;5282;47.052;15.458;2022-08-19T13:45:15;6.07;;;2.65;;
10469;SDS011;5282;47.052;15.458;2022-08-19T13:47:44;5.18;;;2.78;;
10469;SDS011;5282;47.052;15.458;2022-08-19T13:50:12;2.92;;;2.50;;
10469;SDS011;5282;47.052;15.458;2022-08-19T13:52:41;7.07;;;3.10;;
10469;SDS011;5282;47.052;15.458;2022-08-19T13:55:09;3.20;;;2.67;;
10469;SDS011;5282;47.052;15.458;2022-08-19T13:57:38;6.57;;;2.60;;
10469;SDS011;5282;47.052;15.458;2022-08-19T14:00:08;6.63;;;2.88;;
10469;SDS011;5282;47.052;15.458;2022-08-19T14:02:41;7.78;;;2.80;;
10469;SDS011;5282;47.052;15.458;2022-08-19T14:05:10;9.23;;;3.30;;
10469;SDS011;5282;47.052;15.458;2022-08-19T14:07:38;3.20;;;2.60;;
10469;SDS011;5282;47.052;15.458;2022-08-19T14:10:07;6.63;;;2.63;;
10469;SDS011;5282;47.052;15.458;2022-08-19T14:12:35;7.38;;;3.35;;
10469;SDS011;5282;47.052;15.458;2022-08-19T14:15:03;3.47;;;2.70;;
10469;SDS011;5282;47.052;15.458;2022-08-19T14:17:33;3.80;;;2.75;;
10469;SDS011;5282;47.052;15.458;2022-08-19T14:20:02;3.88;;;2.75;;
10469;SDS011;5282;47.052;15.458;2022-08-19T14:22:33;6.78;;;2.80;;
10469;SDS011;5282;47.052;15.458;2022-08-19T14:25:00;7.05;;;3.17;;
10469;SDS011;5282;47.052;15.458;2022-08-19T14:27:28;4.28;;;2.67;;
10469;SDS011;5282;47.052;15.458;2022-08-19T14:30:10;3.17;;;2.85;;
10469;SDS011;5282;47.052;15.458;2022-08-19T14:32:41;6.10;;;2.90;;
10469;SDS011;5282;47.052;15.458;2022-08-19T14:35:10;5.15;;;2.97;;
10469;SDS011;5282;47.052;15.458;2022-08-19T14:37:38;3.95;;;3.00;;
10469;SDS011;5282;47.052;15.458;2022-08-19T14:40:06;4.32;;;2.83;;
10469;SDS011;5282;47.052;15.458;2022-08-19T14:42:36;5.90;;;2.88;;
10469;SDS011;5282;47.052;15.458;2022-08-19T14:45:04;3.28;;;2.88;;
10469;SDS011;5282;47.052;15.458;2022-08-19T14:47:31;4.70;;;3.30;;
10469;SDS011;5282;47.052;15.458;2022-08-19T14:50:00;3.95;;;3.28;;
10469;SDS011;5282;47.052;15.458;2022-08-19T14:52:27;3.80;;;2.90;;
10469;SDS011;5282;47.052;15.458;2022-08-19T14:54:54;4.20;;;2.80;;
10469;SDS011;5282;47.052;15.458;2022-08-19T14:57:20;4.82;;;3.03;;
10469;SDS011;5282;47.052;15.458;2022-08-19T14:59:47;5.72;;;3.35;;